sensor_id;sensor_type;location;lat;lon;timestamp;temperature;humidity
10572;DHT22;5334;48.928;12.704;2023-08-21T00:00:03;22.90;99.90
10572;DHT22;5334;48.928;12.704;2023-08-21T00:02:32;22.90;99.90
10572;DHT22;5334;48.928;12.704;2023-08-21T00:04:57;22.90;99.90
10572;DHT22;5334;48.928;12.704;2023-08-21T00:07:23;22.90;99.90
10572;DHT22;5334;48.928;12.704;2023-08-21T00:09:49;22.90;99.90
10572;DHT22;5334;48.928;12.704;2023-08-21T00:12:15;22.90;99.90
10572;DHT22;5334;48.928;12.704;2023-08-21T00:14:41;22.90;99.90
10572;DHT22;5334;48.928;12.704;2023-08-21T00:17:07;22.90;99.90
10572;DHT22;5334;48.928;12.704;2023-08-21T00:19:34;23.00;99.90
10572;DHT22;5334;48.928;12.704;2023-08-21T00:22:00;22.90;99.90
10572;DHT22;5334;48.928;12.704;2023-08-21T00:24:26;22.90;99.90
10572;DHT22;5334;48.928;12.704;2023-08-21T00:26:52;22.90;99.90
10572;DHT22;5334;48.928;12.704;2023-08-21T00:29:17;22.90;99.90
10572;DHT22;5334;48.928;12.704;2023-08-21T00:31:43;22.90;99.90
10572;DHT22;5334;48.928;12.704;2023-08-21T00:34:08;22.90;99.90
10572;DHT22;5334;48.928;12.704;2023-08-21T00:36:34;23.00;99.90
10572;DHT22;5334;48.928;12.704;2023-08-21T00:39:00;23.10;99.90
10572;DHT22;5334;48.928;12.704;2023-08-21T00:41:25;23.10;99.90
10572;DHT22;5334;48.928;12.704;2023-08-21T00:43:51;23.00;99.90
10572;DHT22;5334;48.928;12.704;2023-08-21T00:46:17;22.90;99.90
10572;DHT22;5334;48.928;12.704;2023-08-21T00:48:44;22.80;99.90
10572;DHT22;5334;48.928;12.704;2023-08-21T00:51:10;22.70;99.90
10572;DHT22;5334;48.928;12.704;2023-08-21T00:53:37;22.60;99.90
10572;DHT22;5334;48.928;12.704;2023-08-21T00:56:03;22.50;99.90
10572;DHT22;5334;48.928;12.704;2023-08-21T00:58:29;22.50;99.90
10572;DHT22;5334;48.928;12.704;2023-08-21T01:00:55;22.60;99.90
10572;DHT22;5334;48.928;12.704;2023-08-21T01:03:21;22.60;99.90
10572;DHT22;5334;48.928;12.704;2023-08-21T01:05:47;22.60;99.90
10572;DHT22;5334;48.928;12.704;2023-08-21T01:14:13;22.60;99.90
10572;DHT22;5334;48.928;12.704;2023-08-21T01:16:44;22.60;99.90
10572;DHT22;5334;48.928;12.704;2023-08-21T01:19:23;22.70;99.90
10572;DHT22;5334;48.928;12.704;2023-08-21T01:21:50;22.70;99.90
10572;DHT22;5334;48.928;12.704;2023-08-21T01:24:19;22.70;99.90
10572;DHT22;5334;48.928;12.704;2023-08-21T01:26:45;22.80;99.90
10572;DHT22;5334;48.928;12.704;2023-08-21T01:29:11;22.80;99.90
10572;DHT22;5334;48.928;12.704;2023-08-21T01:31:37;22.80;99.90
10572;DHT22;5334;48.928;12.704;2023-08-21T01:34:06;22.70;99.90
10572;DHT22;5334;48.928;12.704;2023-08-21T01:36:34;22.70;99.90
10572;DHT22;5334;48.928;12.704;2023-08-21T01:39:00;22.60;99.90
10572;DHT22;5334;48.928;12.704;2023-08-21T01:41:26;22.60;99.90
10572;DHT22;5334;48.928;12.704;2023-08-21T01:43:52;22.60;99.90
10572;DHT22;5334;48.928;12.704;2023-08-21T01:46:17;22.50;99.90
10572;DHT22;5334;48.928;12.704;2023-08-21T01:48:43;22.50;99.90
10572;DHT22;5334;48.928;12.704;2023-08-21T01:51:09;22.40;99.90
10572;DHT22;5334;48.928;12.704;2023-08-21T01:53:34;22.40;99.90
10572;DHT22;5334;48.928;12.704;2023-08-21T01:56:00;22.40;99.90
10572;DHT22;5334;48.928;12.704;2023-08-21T01:58:26;22.30;99.90
10572;DHT22;5334;48.928;12.704;2023-08-21T02:00:51;22.30;99.90
10572;DHT22;5334;48.928;12.704;2023-08-21T02:03:17;22.30;99.90
10572;DHT22;5334;48.928;12.704;2023-08-21T02:05:42;22.30;99.90
10572;DHT22;5334;48.928;12.704;2023-08-21T02:08:11;22.30;99.90
10572;DHT22;5334;48.928;12.704;2023-08-21T02:10:37;22.30;99.90
10572;DHT22;5334;48.928;12.704;2023-08-21T02:13:03;22.20;99.90
10572;DHT22;5334;48.928;12.704;2023-08-21T02:15:29;22.10;99.90
10572;DHT22;5334;48.928;12.704;2023-08-21T02:17:54;22.10;99.90
10572;DHT22;5334;48.928;12.704;2023-08-21T02:20:20;22.10;99.90
10572;DHT22;5334;48.928;12.704;2023-08-21T02:22:46;22.10;99.90
10572;DHT22;5334;48.928;12.704;2023-08-21T02:25:11;22.10;99.90
10572;DHT22;5334;48.928;12.704;2023-08-21T02:27:37;22.10;99.90
10572;DHT22;5334;48.928;12.704;2023-08-21T02:30:03;22.10;99.90
10572;DHT22;5334;48.928;12.704;2023-08-21T02:32:29;22.10;99.90
10572;DHT22;5334;48.928;12.704;2023-08-21T02:34:54;22.10;99.90
10572;DHT22;5334;48.928;12.704;2023-08-21T02:37:20;22.10;99.90
10572;DHT22;5334;48.928;12.704;2023-08-21T02:39:46;22.10;99.90
10572;DHT22;5334;48.928;12.704;2023-08-21T02:42:11;22.10;99.90
10572;DHT22;5334;48.928;12.704;2023-08-21T02:44:37;22.10;99.90
10572;DHT22;5334;48.928;12.704;2023-08-21T02:47:02;22.10;99.90
10572;DHT22;5334;48.928;12.704;2023-08-21T02:49:28;22.10;99.90
10572;DHT22;5334;48.928;12.704;2023-08-21T02:51:54;22.20;99.90
10572;DHT22;5334;48.928;12.704;2023-08-21T02:54:19;22.20;99.90
10572;DHT22;5334;48.928;12.704;2023-08-21T02:56:45;22.30;99.90
10572;DHT22;5334;48.928;12.704;2023-08-21T02:59:11;22.20;99.90
10572;DHT22;5334;48.928;12.704;2023-08-21T03:01:36;22.20;99.90
10572;DHT22;5334;48.928;12.704;2023-08-21T03:04:02;22.20;99.90
10572;DHT22;5334;48.928;12.704;2023-08-21T03:06:27;22.10;99.90
10572;DHT22;5334;48.928;12.704;2023-08-21T03:08:53;22.10;99.90
10572;DHT22;5334;48.928;12.704;2023-08-21T03:11:19;22.10;99.90
10572;DHT22;5334;48.928;12.704;2023-08-21T03:13:44;22.10;99.90
10572;DHT22;5334;48.928;12.704;2023-08-21T03:16:10;22.00;99.90
10572;DHT22;5334;48.928;12.704;2023-08-21T03:18:54;22.00;99.90
10572;DHT22;5334;48.928;12.704;2023-08-21T03:21:21;21.90;99.90
10572;DHT22;5334;48.928;12.704;2023-08-21T03:23:55;21.80;99.90
10572;DHT22;5334;48.928;12.704;2023-08-21T03:26:20;21.70;99.90
10572;DHT22;5334;48.928;12.704;2023-08-21T03:28:46;21.70;99.90
10572;DHT22;5334;48.928;12.704;2023-08-21T03:31:12;21.60;99.90
10572;DHT22;5334;48.928;12.704;2023-08-21T03:33:38;21.60;99.90
10572;DHT22;5334;48.928;12.704;2023-08-21T03:36:03;21.60;99.90
10572;DHT22;5334;48.928;12.704;2023-08-21T03:38:29;21.60;99.90
10572;DHT22;5334;48.928;12.704;2023-08-21T03:40:58;21.60;99.90
10572;DHT22;5334;48.928;12.704;2023-08-21T03:43:24;21.60;99.90
10572;DHT22;5334;48.928;12.704;2023-08-21T03:45:53;21.60;99.90
10572;DHT22;5334;48.928;12.704;2023-08-21T03:48:18;21.60;99.90
10572;DHT22;5334;48.928;12.704;2023-08-21T03:50:44;21.60;99.90
10572;DHT22;5334;48.928;12.704;2023-08-21T03:53:10;21.60;99.90
10572;DHT22;5334;48.928;12.704;2023-08-21T03:55:35;21.50;99.90
10572;DHT22;5334;48.928;12.704;2023-08-21T03:58:01;21.50;99.90
10572;DHT22;5334;48.928;12.704;2023-08-21T04:00:27;21.50;99.90
10572;DHT22;5334;48.928;12.704;2023-08-21T04:02:52;21.40;99.90
10572;DHT22;5334;48.928;12.704;2023-08-21T04:05:18;21.20;99.90
10572;DHT22;5334;48.928;12.704;2023-08-21T04:07:43;21.10;99.90
10572;DHT22;5334;48.928;12.704;2023-08-21T04:10:09;21.10;99.90
10572;DHT22;5334;48.928;12.704;2023-08-21T04:12:35;21.10;99.90
10572;DHT22;5334;48.928;12.704;2023-08-21T04:15:01;21.10;99.90
10572;DHT22;5334;48.928;12.704;2023-08-21T04:17:26;21.10;99.90
10572;DHT22;5334;48.928;12.704;2023-08-21T04:19:52;21.10;99.90
10572;DHT22;5334;48.928;12.704;2023-08-21T04:22:18;21.10;99.90
10572;DHT22;5334;48.928;12.704;2023-08-21T04:24:44;21.10;99.90
10572;DHT22;5334;48.928;12.704;2023-08-21T04:27:10;21.10;99.90
10572;DHT22;5334;48.928;12.704;2023-08-21T04:29:36;21.10;99.90
10572;DHT22;5334;48.928;12.704;2023-08-21T04:32:01;21.10;99.90
10572;DHT22;5334;48.928;12.704;2023-08-21T04:34:27;21.20;99.90
10572;DHT22;5334;48.928;12.704;2023-08-21T04:36:53;21.20;99.90
10572;DHT22;5334;48.928;12.704;2023-08-21T04:39:18;21.20;99.90
10572;DHT22;5334;48.928;12.704;2023-08-21T04:41:44;21.20;99.90
10572;DHT22;5334;48.928;12.704;2023-08-21T04:44:10;21.30;99.90
10572;DHT22;5334;48.928;12.704;2023-08-21T04:46:35;21.40;99.90
10572;DHT22;5334;48.928;12.704;2023-08-21T04:49:01;21.50;99.90
10572;DHT22;5334;48.928;12.704;2023-08-21T04:51:27;21.60;99.90
10572;DHT22;5334;48.928;12.704;2023-08-21T04:53:53;21.60;99.90
10572;DHT22;5334;48.928;12.704;2023-08-21T04:56:18;21.70;99.90
10572;DHT22;5334;48.928;12.704;2023-08-21T04:58:44;21.80;99.90
10572;DHT22;5334;48.928;12.704;2023-08-21T05:01:10;21.80;99.90
10572;DHT22;5334;48.928;12.704;2023-08-21T05:03:36;21.80;99.90
10572;DHT22;5334;48.928;12.704;2023-08-21T05:06:01;21.90;99.90
10572;DHT22;5334;48.928;12.704;2023-08-21T05:08:27;22.00;99.90
10572;DHT22;5334;48.928;12.704;2023-08-21T05:10:59;22.00;99.90
10572;DHT22;5334;48.928;12.704;2023-08-21T05:13:25;21.90;99.90
10572;DHT22;5334;48.928;12.704;2023-08-21T05:15:56;21.90;99.90
10572;DHT22;5334;48.928;12.704;2023-08-21T05:18:23;21.90;99.90
10572;DHT22;5334;48.928;12.704;2023-08-21T05:20:50;22.00;99.90
10572;DHT22;5334;48.928;12.704;2023-08-21T05:23:16;22.00;99.90
10572;DHT22;5334;48.928;12.704;2023-08-21T05:25:43;22.10;99.90
10572;DHT22;5334;48.928;12.704;2023-08-21T05:28:09;22.10;99.90
10572;DHT22;5334;48.928;12.704;2023-08-21T05:30:36;22.10;99.90
10572;DHT22;5334;48.928;12.704;2023-08-21T05:33:02;22.10;99.90
10572;DHT22;5334;48.928;12.704;2023-08-21T05:35:28;22.10;99.90
10572;DHT22;5334;48.928;12.704;2023-08-21T05:37:53;22.00;99.90
10572;DHT22;5334;48.928;12.704;2023-08-21T05:40:19;22.10;99.90
10572;DHT22;5334;48.928;12.704;2023-08-21T05:42:45;22.10;99.90
10572;DHT22;5334;48.928;12.704;2023-08-21T05:45:10;22.20;99.90
10572;DHT22;5334;48.928;12.704;2023-08-21T05:47:36;22.50;99.90
10572;DHT22;5334;48.928;12.704;2023-08-21T05:50:02;22.80;99.90
10572;DHT22;5334;48.928;12.704;2023-08-21T05:54:54;23.50;99.90
10572;DHT22;5334;48.928;12.704;2023-08-21T05:57:19;23.80;99.90
10572;DHT22;5334;48.928;12.704;2023-08-21T05:59:46;24.10;99.90
10572;DHT22;5334;48.928;12.704;2023-08-21T06:02:15;24.30;99.90
10572;DHT22;5334;48.928;12.704;2023-08-21T06:04:41;24.50;99.90
10572;DHT22;5334;48.928;12.704;2023-08-21T06:07:08;24.60;99.90
10572;DHT22;5334;48.928;12.704;2023-08-21T06:09:34;24.80;99.90
10572;DHT22;5334;48.928;12.704;2023-08-21T06:12:01;25.00;99.90
10572;DHT22;5334;48.928;12.704;2023-08-21T06:14:27;25.20;99.90
10572;DHT22;5334;48.928;12.704;2023-08-21T06:17:05;25.40;99.90
10572;DHT22;5334;48.928;12.704;2023-08-21T06:19:30;25.60;99.90
10572;DHT22;5334;48.928;12.704;2023-08-21T06:21:56;25.80;99.90
10572;DHT22;5334;48.928;12.704;2023-08-21T06:24:23;26.00;99.90
10572;DHT22;5334;48.928;12.704;2023-08-21T06:26:50;26.10;99.90
10572;DHT22;5334;48.928;12.704;2023-08-21T06:29:16;26.30;99.90
10572;DHT22;5334;48.928;12.704;2023-08-21T06:31:42;26.40;99.90
10572;DHT22;5334;48.928;12.704;2023-08-21T06:34:08;26.60;99.90
10572;DHT22;5334;48.928;12.704;2023-08-21T06:36:34;26.70;99.90
10572;DHT22;5334;48.928;12.704;2023-08-21T06:38:59;26.90;99.90
10572;DHT22;5334;48.928;12.704;2023-08-21T06:41:25;27.10;99.90
10572;DHT22;5334;48.928;12.704;2023-08-21T06:43:51;27.20;99.90
10572;DHT22;5334;48.928;12.704;2023-08-21T06:46:16;27.50;99.90
10572;DHT22;5334;48.928;12.704;2023-08-21T06:48:42;27.50;99.90
10572;DHT22;5334;48.928;12.704;2023-08-21T06:51:09;27.50;99.90
10572;DHT22;5334;48.928;12.704;2023-08-21T06:53:35;27.50;99.90
10572;DHT22;5334;48.928;12.704;2023-08-21T06:56:00;27.50;99.90
10572;DHT22;5334;48.928;12.704;2023-08-21T06:58:26;27.50;99.90
10572;DHT22;5334;48.928;12.704;2023-08-21T07:00:53;27.60;99.90
10572;DHT22;5334;48.928;12.704;2023-08-21T07:03:20;27.70;99.90
10572;DHT22;5334;48.928;12.704;2023-08-21T07:05:58;27.80;99.90
10572;DHT22;5334;48.928;12.704;2023-08-21T07:08:25;27.90;99.90
10572;DHT22;5334;48.928;12.704;2023-08-21T07:10:52;28.00;99.90
10572;DHT22;5334;48.928;12.704;2023-08-21T07:13:18;28.10;99.90
10572;DHT22;5334;48.928;12.704;2023-08-21T07:15:43;28.20;99.90
10572;DHT22;5334;48.928;12.704;2023-08-21T07:18:09;28.30;99.90
10572;DHT22;5334;48.928;12.704;2023-08-21T07:20:35;28.50;99.90
10572;DHT22;5334;48.928;12.704;2023-08-21T07:23:03;28.50;99.90
10572;DHT22;5334;48.928;12.704;2023-08-21T07:25:29;28.60;99.90
10572;DHT22;5334;48.928;12.704;2023-08-21T07:27:55;28.90;99.90
10572;DHT22;5334;48.928;12.704;2023-08-21T07:30:21;29.10;99.90
10572;DHT22;5334;48.928;12.704;2023-08-21T07:32:50;29.40;99.90
10572;DHT22;5334;48.928;12.704;2023-08-21T07:35:16;29.50;99.90
10572;DHT22;5334;48.928;12.704;2023-08-21T07:37:45;29.60;99.90
10572;DHT22;5334;48.928;12.704;2023-08-21T07:40:11;29.40;99.90
10572;DHT22;5334;48.928;12.704;2023-08-21T07:42:36;29.20;99.90
10572;DHT22;5334;48.928;12.704;2023-08-21T07:45:02;29.30;99.90
10572;DHT22;5334;48.928;12.704;2023-08-21T07:49:55;29.90;99.90
10572;DHT22;5334;48.928;12.704;2023-08-21T07:52:21;30.20;99.90
10572;DHT22;5334;48.928;12.704;2023-08-21T07:54:50;30.50;99.90
10572;DHT22;5334;48.928;12.704;2023-08-21T07:57:16;30.70;99.90
10572;DHT22;5334;48.928;12.704;2023-08-21T07:59:43;30.70;99.90
10572;DHT22;5334;48.928;12.704;2023-08-21T08:02:08;30.40;99.90
10572;DHT22;5334;48.928;12.704;2023-08-21T08:04:36;30.30;99.90
10572;DHT22;5334;48.928;12.704;2023-08-21T08:07:02;30.40;99.90
10572;DHT22;5334;48.928;12.704;2023-08-21T08:09:28;30.50;99.90
10572;DHT22;5334;48.928;12.704;2023-08-21T08:11:53;30.50;99.90
10572;DHT22;5334;48.928;12.704;2023-08-21T08:14:19;30.30;99.90
10572;DHT22;5334;48.928;12.704;2023-08-21T08:16:45;30.20;99.90
10572;DHT22;5334;48.928;12.704;2023-08-21T08:19:10;30.40;99.90
10572;DHT22;5334;48.928;12.704;2023-08-21T08:21:36;30.60;99.90
10572;DHT22;5334;48.928;12.704;2023-08-21T08:24:02;30.70;99.90
10572;DHT22;5334;48.928;12.704;2023-08-21T08:26:27;30.80;99.90
10572;DHT22;5334;48.928;12.704;2023-08-21T08:28:53;30.80;99.90
10572;DHT22;5334;48.928;12.704;2023-08-21T08:31:19;31.00;99.90
10572;DHT22;5334;48.928;12.704;2023-08-21T08:33:45;31.00;99.90
10572;DHT22;5334;48.928;12.704;2023-08-21T08:36:11;30.90;99.90
10572;DHT22;5334;48.928;12.704;2023-08-21T08:38:37;31.10;99.90
10572;DHT22;5334;48.928;12.704;2023-08-21T08:41:13;31.20;99.90
10572;DHT22;5334;48.928;12.704;2023-08-21T08:43:40;31.20;99.90
10572;DHT22;5334;48.928;12.704;2023-08-21T08:46:07;31.40;99.90
10572;DHT22;5334;48.928;12.704;2023-08-21T08:48:37;31.70;99.90
10572;DHT22;5334;48.928;12.704;2023-08-21T08:51:04;32.00;99.60
10572;DHT22;5334;48.928;12.704;2023-08-21T08:53:30;32.20;99.50
10572;DHT22;5334;48.928;12.704;2023-08-21T08:55:57;32.20;99.10
10572;DHT22;5334;48.928;12.704;2023-08-21T08:58:23;31.90;99.20
10572;DHT22;5334;48.928;12.704;2023-08-21T09:00:49;31.70;99.30
10572;DHT22;5334;48.928;12.704;2023-08-21T09:03:15;31.60;99.40
10572;DHT22;5334;48.928;12.704;2023-08-21T09:05:41;31.80;99.70
10572;DHT22;5334;48.928;12.704;2023-08-21T09:08:12;32.10;99.60
10572;DHT22;5334;48.928;12.704;2023-08-21T09:10:39;32.10;98.80
10572;DHT22;5334;48.928;12.704;2023-08-21T09:13:18;32.00;99.40
10572;DHT22;5334;48.928;12.704;2023-08-21T09:15:51;32.00;99.40
10572;DHT22;5334;48.928;12.704;2023-08-21T09:18:18;32.00;98.50
10572;DHT22;5334;48.928;12.704;2023-08-21T09:20:44;32.00;99.20
10572;DHT22;5334;48.928;12.704;2023-08-21T09:25:40;32.60;98.00
10572;DHT22;5334;48.928;12.704;2023-08-21T09:30:49;32.80;98.50
10572;DHT22;5334;48.928;12.704;2023-08-21T09:33:24;32.50;98.00
10572;DHT22;5334;48.928;12.704;2023-08-21T09:35:53;32.70;98.00
10572;DHT22;5334;48.928;12.704;2023-08-21T09:38:19;32.70;98.00
10572;DHT22;5334;48.928;12.704;2023-08-21T09:40:55;33.00;97.90
10572;DHT22;5334;48.928;12.704;2023-08-21T09:43:22;33.40;98.10
10572;DHT22;5334;48.928;12.704;2023-08-21T09:45:55;33.60;96.70
10572;DHT22;5334;48.928;12.704;2023-08-21T09:48:25;33.90;97.20
10572;DHT22;5334;48.928;12.704;2023-08-21T09:50:55;33.70;96.50
10572;DHT22;5334;48.928;12.704;2023-08-21T09:53:22;33.60;96.30
10572;DHT22;5334;48.928;12.704;2023-08-21T09:55:53;33.60;95.80
10572;DHT22;5334;48.928;12.704;2023-08-21T09:58:19;34.20;96.60
10572;DHT22;5334;48.928;12.704;2023-08-21T10:00:47;34.30;95.70
10572;DHT22;5334;48.928;12.704;2023-08-21T10:03:14;34.40;95.80
10572;DHT22;5334;48.928;12.704;2023-08-21T10:05:42;34.30;95.10
10572;DHT22;5334;48.928;12.704;2023-08-21T10:08:09;34.20;95.10
10572;DHT22;5334;48.928;12.704;2023-08-21T10:10:38;34.00;94.70
10572;DHT22;5334;48.928;12.704;2023-08-21T10:13:05;33.90;93.90
10572;DHT22;5334;48.928;12.704;2023-08-21T10:15:32;33.80;93.90
10572;DHT22;5334;48.928;12.704;2023-08-21T10:20:43;34.30;93.60
10572;DHT22;5334;48.928;12.704;2023-08-21T10:23:09;34.40;93.80
10572;DHT22;5334;48.928;12.704;2023-08-21T10:25:41;34.30;94.00
10572;DHT22;5334;48.928;12.704;2023-08-21T10:28:07;34.10;94.20
10572;DHT22;5334;48.928;12.704;2023-08-21T10:30:33;33.80;94.30
10572;DHT22;5334;48.928;12.704;2023-08-21T10:32:59;33.80;93.90
10572;DHT22;5334;48.928;12.704;2023-08-21T10:38:15;34.90;93.80
10572;DHT22;5334;48.928;12.704;2023-08-21T10:41:07;34.90;92.80
10572;DHT22;5334;48.928;12.704;2023-08-21T10:43:41;34.40;92.60
10572;DHT22;5334;48.928;12.704;2023-08-21T10:46:09;34.30;93.10
10572;DHT22;5334;48.928;12.704;2023-08-21T10:48:38;34.20;92.40
10572;DHT22;5334;48.928;12.704;2023-08-21T10:51:05;34.30;92.90
10572;DHT22;5334;48.928;12.704;2023-08-21T10:53:31;34.50;91.90
10572;DHT22;5334;48.928;12.704;2023-08-21T10:56:02;34.70;92.20
10572;DHT22;5334;48.928;12.704;2023-08-21T10:58:33;35.00;92.00
10572;DHT22;5334;48.928;12.704;2023-08-21T11:00:59;35.10;91.00
10572;DHT22;5334;48.928;12.704;2023-08-21T11:03:25;35.20;91.30
10572;DHT22;5334;48.928;12.704;2023-08-21T11:06:20;35.00;89.80
10572;DHT22;5334;48.928;12.704;2023-08-21T11:08:46;34.80;90.40
10572;DHT22;5334;48.928;12.704;2023-08-21T11:13:38;35.40;89.70
10572;DHT22;5334;48.928;12.704;2023-08-21T11:16:05;35.50;86.90
10572;DHT22;5334;48.928;12.704;2023-08-21T11:23:36;36.60;81.80
10572;DHT22;5334;48.928;12.704;2023-08-21T11:26:02;36.80;81.30
10572;DHT22;5334;48.928;12.704;2023-08-21T11:28:29;36.80;77.50
10572;DHT22;5334;48.928;12.704;2023-08-21T11:30:56;36.80;80.10
10572;DHT22;5334;48.928;12.704;2023-08-21T11:33:22;36.70;79.10
10572;DHT22;5334;48.928;12.704;2023-08-21T11:35:49;36.80;81.30
10572;DHT22;5334;48.928;12.704;2023-08-21T11:38:17;36.90;78.00
10572;DHT22;5334;48.928;12.704;2023-08-21T11:41:00;37.20;82.20
10572;DHT22;5334;48.928;12.704;2023-08-21T11:43:57;37.30;78.70
10572;DHT22;5334;48.928;12.704;2023-08-21T11:46:26;37.00;77.70
10572;DHT22;5334;48.928;12.704;2023-08-21T11:48:52;36.80;77.30
10572;DHT22;5334;48.928;12.704;2023-08-21T11:51:18;36.70;77.80
10572;DHT22;5334;48.928;12.704;2023-08-21T11:53:47;37.10;78.80
10572;DHT22;5334;48.928;12.704;2023-08-21T11:56:16;37.20;76.90
10572;DHT22;5334;48.928;12.704;2023-08-21T11:58:46;37.20;79.80
10572;DHT22;5334;48.928;12.704;2023-08-21T12:01:22;37.30;77.80
10572;DHT22;5334;48.928;12.704;2023-08-21T12:03:48;37.30;80.70
10572;DHT22;5334;48.928;12.704;2023-08-21T12:06:21;37.30;79.40
10572;DHT22;5334;48.928;12.704;2023-08-21T12:08:47;37.30;78.40
10572;DHT22;5334;48.928;12.704;2023-08-21T12:11:12;37.10;79.00
10572;DHT22;5334;48.928;12.704;2023-08-21T12:13:38;36.90;76.00
10572;DHT22;5334;48.928;12.704;2023-08-21T12:16:04;36.60;75.40
10572;DHT22;5334;48.928;12.704;2023-08-21T12:18:30;36.60;75.70
10572;DHT22;5334;48.928;12.704;2023-08-21T12:20:56;37.20;74.60
10572;DHT22;5334;48.928;12.704;2023-08-21T12:23:22;37.40;73.60
10572;DHT22;5334;48.928;12.704;2023-08-21T12:25:48;37.70;71.80
10572;DHT22;5334;48.928;12.704;2023-08-21T12:28:14;37.90;72.10
10572;DHT22;5334;48.928;12.704;2023-08-21T12:30:39;37.80;69.50
10572;DHT22;5334;48.928;12.704;2023-08-21T12:33:05;37.30;72.00
10572;DHT22;5334;48.928;12.704;2023-08-21T12:35:31;37.30;73.70
10572;DHT22;5334;48.928;12.704;2023-08-21T12:37:57;37.30;72.70
10572;DHT22;5334;48.928;12.704;2023-08-21T12:40:31;37.30;72.60
10572;DHT22;5334;48.928;12.704;2023-08-21T12:42:57;37.30;70.90
10572;DHT22;5334;48.928;12.704;2023-08-21T12:45:22;37.70;71.50
10572;DHT22;5334;48.928;12.704;2023-08-21T12:47:48;38.00;71.10
10572;DHT22;5334;48.928;12.704;2023-08-21T12:50:14;37.80;71.10
10572;DHT22;5334;48.928;12.704;2023-08-21T12:52:39;37.60;70.80
10572;DHT22;5334;48.928;12.704;2023-08-21T12:55:07;37.60;70.50
10572;DHT22;5334;48.928;12.704;2023-08-21T12:57:32;37.70;71.40
10572;DHT22;5334;48.928;12.704;2023-08-21T12:59:58;37.90;72.00
10572;DHT22;5334;48.928;12.704;2023-08-21T13:02:24;38.20;68.60
10572;DHT22;5334;48.928;12.704;2023-08-21T13:04:52;38.00;67.80
10572;DHT22;5334;48.928;12.704;2023-08-21T13:07:18;37.80;68.00
10572;DHT22;5334;48.928;12.704;2023-08-21T13:09:43;37.80;67.20
10572;DHT22;5334;48.928;12.704;2023-08-21T13:12:09;37.80;66.90
10572;DHT22;5334;48.928;12.704;2023-08-21T13:14:35;38.20;68.60
10572;DHT22;5334;48.928;12.704;2023-08-21T13:17:00;38.20;65.50
10572;DHT22;5334;48.928;12.704;2023-08-21T13:19:26;37.70;65.40
10572;DHT22;5334;48.928;12.704;2023-08-21T13:21:51;37.50;63.60
10572;DHT22;5334;48.928;12.704;2023-08-21T13:24:19;37.10;61.40
10572;DHT22;5334;48.928;12.704;2023-08-21T13:26:45;37.00;61.00
10572;DHT22;5334;48.928;12.704;2023-08-21T13:29:11;37.60;60.40
10572;DHT22;5334;48.928;12.704;2023-08-21T13:31:36;38.10;60.10
10572;DHT22;5334;48.928;12.704;2023-08-21T13:34:02;38.50;62.00
10572;DHT22;5334;48.928;12.704;2023-08-21T13:36:28;38.70;60.50
10572;DHT22;5334;48.928;12.704;2023-08-21T13:38:54;38.80;59.00
10572;DHT22;5334;48.928;12.704;2023-08-21T13:41:20;38.90;56.80
10572;DHT22;5334;48.928;12.704;2023-08-21T13:43:45;38.80;57.50
10572;DHT22;5334;48.928;12.704;2023-08-21T13:46:11;38.60;60.20
10572;DHT22;5334;48.928;12.704;2023-08-21T13:48:37;38.50;57.00
10572;DHT22;5334;48.928;12.704;2023-08-21T13:51:03;38.70;57.50
10572;DHT22;5334;48.928;12.704;2023-08-21T13:53:29;38.90;54.80
10572;DHT22;5334;48.928;12.704;2023-08-21T13:55:54;39.10;57.20
10572;DHT22;5334;48.928;12.704;2023-08-21T13:58:20;39.20;56.20
10572;DHT22;5334;48.928;12.704;2023-08-21T14:00:46;39.20;57.70
10572;DHT22;5334;48.928;12.704;2023-08-21T14:03:12;39.10;56.70
10572;DHT22;5334;48.928;12.704;2023-08-21T14:05:37;39.00;55.40
10572;DHT22;5334;48.928;12.704;2023-08-21T14:08:03;39.10;54.20
10572;DHT22;5334;48.928;12.704;2023-08-21T14:10:29;39.30;54.10
10572;DHT22;5334;48.928;12.704;2023-08-21T14:12:56;39.40;53.60
10572;DHT22;5334;48.928;12.704;2023-08-21T14:15:22;39.30;54.60
10572;DHT22;5334;48.928;12.704;2023-08-21T14:17:48;39.20;54.40
10572;DHT22;5334;48.928;12.704;2023-08-21T14:20:15;39.10;56.00
10572;DHT22;5334;48.928;12.704;2023-08-21T14:22:41;38.90;55.30
10572;DHT22;5334;48.928;12.704;2023-08-21T14:25:07;38.70;55.40
10572;DHT22;5334;48.928;12.704;2023-08-21T14:27:33;38.50;55.90
10572;DHT22;5334;48.928;12.704;2023-08-21T14:29:59;38.00;57.00
10572;DHT22;5334;48.928;12.704;2023-08-21T14:32:25;37.80;56.60
10572;DHT22;5334;48.928;12.704;2023-08-21T14:37:24;38.20;55.60
10572;DHT22;5334;48.928;12.704;2023-08-21T14:39:50;38.10;55.80
10572;DHT22;5334;48.928;12.704;2023-08-21T14:42:15;38.30;56.10
10572;DHT22;5334;48.928;12.704;2023-08-21T14:44:41;38.30;56.30
10572;DHT22;5334;48.928;12.704;2023-08-21T14:47:07;38.40;55.10
10572;DHT22;5334;48.928;12.704;2023-08-21T14:49:39;38.30;54.50
10572;DHT22;5334;48.928;12.704;2023-08-21T14:52:26;38.40;54.00
10572;DHT22;5334;48.928;12.704;2023-08-21T14:54:53;38.70;55.00
10572;DHT22;5334;48.928;12.704;2023-08-21T14:57:19;38.70;53.10
10572;DHT22;5334;48.928;12.704;2023-08-21T14:59:44;38.70;53.60
10572;DHT22;5334;48.928;12.704;2023-08-21T15:02:10;39.00;53.90
10572;DHT22;5334;48.928;12.704;2023-08-21T15:04:36;39.30;55.40
10572;DHT22;5334;48.928;12.704;2023-08-21T15:07:02;39.50;53.50
10572;DHT22;5334;48.928;12.704;2023-08-21T15:09:33;39.40;52.80
10572;DHT22;5334;48.928;12.704;2023-08-21T15:11:59;39.00;53.20
10572;DHT22;5334;48.928;12.704;2023-08-21T15:14:24;38.90;53.90
10572;DHT22;5334;48.928;12.704;2023-08-21T15:16:50;38.70;53.40
10572;DHT22;5334;48.928;12.704;2023-08-21T15:19:31;38.40;53.20
10572;DHT22;5334;48.928;12.704;2023-08-21T15:21:57;38.30;52.80
10572;DHT22;5334;48.928;12.704;2023-08-21T15:24:22;38.40;52.80
10572;DHT22;5334;48.928;12.704;2023-08-21T15:26:48;38.40;53.40
10572;DHT22;5334;48.928;12.704;2023-08-21T15:29:13;38.10;53.50
10572;DHT22;5334;48.928;12.704;2023-08-21T15:31:39;38.10;53.00
10572;DHT22;5334;48.928;12.704;2023-08-21T15:34:05;38.20;52.70
10572;DHT22;5334;48.928;12.704;2023-08-21T15:36:30;38.40;52.40
10572;DHT22;5334;48.928;12.704;2023-08-21T15:38:57;38.50;51.90
10572;DHT22;5334;48.928;12.704;2023-08-21T15:41:23;38.40;51.80
10572;DHT22;5334;48.928;12.704;2023-08-21T15:43:48;38.30;51.50
10572;DHT22;5334;48.928;12.704;2023-08-21T15:46:14;38.20;53.00
10572;DHT22;5334;48.928;12.704;2023-08-21T15:48:39;38.10;52.30
10572;DHT22;5334;48.928;12.704;2023-08-21T15:51:05;38.10;53.30
10572;DHT22;5334;48.928;12.704;2023-08-21T15:53:31;38.00;53.60
10572;DHT22;5334;48.928;12.704;2023-08-21T15:55:57;38.00;54.10
10572;DHT22;5334;48.928;12.704;2023-08-21T15:58:22;37.90;53.30